Terminal Aerodrome Forecast
Issued by NWS

Home | Current Version | Previous Version | Text Only | Print | Product List | Glossary On
Versions: 1 2 3 4 5 6 7 8 9 10 11 12 13 14 15 16 17 18 19 20 21 22 23
000
FTUS44 KBMX 071248 AAB
TAFTCL
TAF AMD
KTCL 071248Z 0713/0812 00000KT 5SM BR SCT007
     FM071330 22007KT P6SM BKN007 OVC025
     FM071500 21007KT P6SM SCT040 SCT250
     FM080100 00000KT P6SM SCT250=

USA.gov is the U.S. government's official web portal to all federal, state and local government web resources and services.